Time;durP1;ratioP1;P1;durP2;ratioP2;P2;SDS_P1;SDS_P2;PMS_P1;PMS_P2;Temp;Humidity;BMP_temperature;BMP_pressure;BME280_temperature;BME280_humidity;BME280_pressure;Samples;Min_cycle;Max_cycle;Signal;HPM_P1;HPM_P2
2023/08/09 00:00:18;;;;;;;3.03;2.13;;;19.10;71.70;;;;;;5043000;28;20045;-49
2023/08/09 00:02:49;;;;;;;2.97;2.13;;;19.10;71.70;;;;;;5046468;28;20143;-50
2023/08/09 00:05:15;;;;;;;2.88;2.25;;;19.10;71.90;;;;;;5044267;28;20067;-50
2023/08/09 00:07:43;;;;;;;3.20;2.30;;;19.10;71.80;;;;;;5047171;28;20064;-49
2023/08/09 00:10:11;;;;;;;3.08;2.22;;;19.00;71.90;;;;;;5042171;28;20045;-52
2023/08/09 00:12:38;;;;;;;3.25;2.30;;;19.10;72.00;;;;;;5049070;28;20079;-50
2023/08/09 00:15:06;;;;;;;3.63;2.35;;;19.00;71.90;;;;;;5029901;28;20045;-49
2023/08/09 00:17:44;;;;;;;2.63;2.28;;;19.10;72.10;;;;;;5043143;28;20039;-50
2023/08/09 00:20:11;;;;;;;2.88;2.60;;;19.10;72.30;;;;;;5047303;28;20056;-47
2023/08/09 00:22:39;;;;;;;4.72;2.35;;;19.00;72.30;;;;;;5049285;28;20059;-50
2023/08/09 00:25:07;;;;;;;3.50;2.40;;;19.00;72.30;;;;;;5047666;28;20067;-51
2023/08/09 00:27:35;;;;;;;3.63;2.70;;;19.00;72.50;;;;;;5045621;28;20560;-51
2023/08/09 00:30:14;;;;;;;4.97;2.88;;;19.00;72.60;;;;;;5042458;28;20106;-48
2023/08/09 00:32:43;;;;;;;4.30;2.70;;;19.10;72.70;;;;;;5047884;28;20040;-47
2023/08/09 00:35:12;;;;;;;4.55;2.42;;;19.00;72.50;;;;;;5030151;28;20053;-47
2023/08/09 00:37:39;;;;;;;4.25;2.80;;;19.00;72.60;;;;;;5044998;28;20095;-48
2023/08/09 00:40:07;;;;;;;3.70;3.03;;;19.10;72.90;;;;;;5047803;28;20037;-51
2023/08/09 00:42:34;;;;;;;6.28;4.18;;;19.00;72.90;;;;;;5030783;28;20453;-52
2023/08/09 00:45:08;;;;;;;6.20;5.20;;;19.10;73.20;;;;;;5029606;28;20055;-50
2023/08/09 00:47:38;;;;;;;4.85;4.40;;;19.10;73.40;;;;;;5030144;28;20605;-49
2023/08/09 00:50:06;;;;;;;3.72;2.83;;;19.10;73.20;;;;;;5025499;28;20545;-51
2023/08/09 00:52:33;;;;;;;1.00;1.00;;;19.10;72.90;;;;;;5050111;28;20503;-46
2023/08/09 00:55:04;;;;;;;1.10;0.90;;;19.10;72.20;;;;;;5049771;28;20051;-50
2023/08/09 00:57:32;;;;;;;1.65;1.00;;;19.10;71.60;;;;;;5051603;28;20045;-51
2023/08/09 01:00:04;;;;;;;2.28;1.05;;;19.00;71.40;;;;;;5046216;28;20037;-46
2023/08/09 01:02:32;;;;;;;0.73;0.73;;;19.00;71.50;;;;;;5048982;28;20052;-47
2023/08/09 01:04:59;;;;;;;0.73;0.65;;;19.00;71.30;;;;;;5031737;28;20127;-51
2023/08/09 01:07:39;;;;;;;1.08;0.90;;;18.90;71.10;;;;;;5034079;28;20068;-47
2023/08/09 01:10:15;;;;;;;0.82;0.80;;;18.90;71.30;;;;;;5033699;28;20045;-52
2023/08/09 01:12:55;;;;;;;0.60;0.60;;;18.90;71.40;;;;;;5034105;28;20090;-47
2023/08/09 01:15:23;;;;;;;0.40;0.40;;;18.80;71.40;;;;;;5048045;28;20052;-50
2023/08/09 01:17:52;;;;;;;0.68;0.68;;;18.80;71.40;;;;;;5026851;28;20037;-50
2023/08/09 01:20:23;;;;;;;0.60;0.60;;;18.80;71.50;;;;;;5047129;28;20127;-51
2023/08/09 01:23:02;;;;;;;1.48;0.77;;;18.70;71.20;;;;;;5030890;28;20133;-50
2023/08/09 01:25:30;;;;;;;0.52;0.52;;;18.70;71.20;;;;;;5033513;28;20576;-50
2023/08/09 01:27:57;;;;;;;1.38;1.00;;;18.70;71.00;;;;;;5050375;28;20446;-49
2023/08/09 01:30:25;;;;;;;0.73;0.73;;;18.70;71.00;;;;;;5031482;28;20068;-47
2023/08/09 01:32:56;;;;;;;0.70;0.70;;;18.60;71.30;;;;;;5050589;28;20047;-49
2023/08/09 01:35:34;;;;;;;0.80;0.80;;;18.60;71.50;;;;;;5032184;28;20449;-47
2023/08/09 01:38:28;;;;;;;1.98;1.08;;;18.60;71.80;;;;;;5033991;28;20044;-50
2023/08/09 01:40:57;;;;;;;1.00;0.70;;;18.60;71.80;;;;;;5028298;28;20091;-50
2023/08/09 01:43:31;;;;;;;1.20;0.80;;;18.60;71.70;;;;;;5033885;28;20491;-51
2023/08/09 01:46:01;;;;;;;1.27;1.00;;;18.60;71.80;;;;;;5047773;28;20049;-49
2023/08/09 01:48:28;;;;;;;1.05;0.98;;;18.60;72.00;;;;;;5048833;28;20094;-51
2023/08/09 01:50:57;;;;;;;1.90;1.00;;;18.60;72.10;;;;;;5032170;28;20079;-49
2023/08/09 01:53:25;;;;;;;1.88;0.90;;;18.60;72.00;;;;;;5050693;28;20048;-47
2023/08/09 01:55:52;;;;;;;1.30;1.15;;;18.60;71.80;;;;;;5046633;28;20095;-46
2023/08/09 01:58:21;;;;;;;1.10;1.00;;;18.70;72.00;;;;;;5032065;28;20052;-50
2023/08/09 02:00:52;;;;;;;2.25;1.00;;;18.70;71.70;;;;;;5048508;28;20518;-49
2023/08/09 02:03:19;;;;;;;0.90;0.90;;;18.60;71.60;;;;;;5050957;28;20040;-49
2023/08/09 02:05:47;;;;;;;1.13;1.10;;;18.70;71.60;;;;;;5032358;28;20045;-50
2023/08/09 02:08:14;;;;;;;1.13;1.02;;;18.70;71.50;;;;;;5049283;28;20420;-48
2023/08/09 02:10:44;;;;;;;1.20;1.00;;;18.70;71.30;;;;;;5048700;28;20128;-51
2023/08/09 02:13:10;;;;;;;1.30;1.20;;;18.70;71.10;;;;;;5032834;28;20045;-51
2023/08/09 02:15:37;;;;;;;0.90;0.90;;;18.70;71.20;;;;;;5049661;28;20144;-46
2023/08/09 02:18:14;;;;;;;1.10;1.00;;;18.70;71.20;;;;;;5049896;28;20041;-49
2023/08/09 02:20:41;;;;;;;2.35;1.25;;;18.70;71.30;;;;;;5030577;28;20700;-50
2023/08/09 02:23:12;;;;;;;1.15;1.02;;;18.70;71.40;;;;;;5023674;28;20069;-48
2023/08/09 02:25:40;;;;;;;1.30;1.20;;;18.70;71.60;;;;;;5049599;28;20123;-49
2023/08/09 02:28:08;;;;;;;2.15;1.25;;;18.60;71.50;;;;;;5050905;28;20041;-50
2023/08/09 02:30:35;;;;;;;1.10;0.90;;;18.60;71.80;;;;;;5028570;28;20056;-46
2023/08/09 02:33:01;;;;;;;1.23;1.13;;;18.70;71.90;;;;;;5051148;28;20037;-48
2023/08/09 02:35:32;;;;;;;1.15;1.05;;;18.70;71.80;;;;;;5032367;28;20564;-49
2023/08/09 02:38:02;;;;;;;1.52;1.42;;;18.70;72.10;;;;;;5048973;28;20414;-49
2023/08/09 02:40:29;;;;;;;2.20;1.20;;;18.70;71.90;;;;;;5047739;28;20041;-47
2023/08/09 02:42:59;;;;;;;1.20;1.20;;;18.70;71.90;;;;;;5048624;28;20496;-51
2023/08/09 02:45:26;;;;;;;1.10;1.10;;;18.70;72.00;;;;;;5032168;28;20051;-49
2023/08/09 02:47:53;;;;;;;1.30;1.20;;;18.70;72.00;;;;;;5046402;28;20126;-51
2023/08/09 02:50:29;;;;;;;2.70;1.10;;;18.70;71.70;;;;;;5048276;28;20411;-51
2023/08/09 02:52:55;;;;;;;1.27;1.17;;;18.70;71.60;;;;;;5049987;28;20036;-51
2023/08/09 02:55:22;;;;;;;1.48;0.98;;;18.70;71.50;;;;;;5029380;28;20091;-52
2023/08/09 02:57:55;;;;;;;1.55;1.30;;;18.70;71.80;;;;;;5048379;28;20041;-51
2023/08/09 03:00:24;;;;;;;1.35;1.23;;;18.70;71.80;;;;;;5045564;28;20545;-49
2023/08/09 03:02:53;;;;;;;1.83;1.48;;;18.70;71.90;;;;;;5042656;28;20044;-49
2023/08/09 03:05:20;;;;;;;1.75;1.27;;;18.70;72.00;;;;;;5031204;28;20041;-52
2023/08/09 03:07:49;;;;;;;1.50;1.40;;;18.70;72.20;;;;;;5028615;28;20065;-50
2023/08/09 03:10:19;;;;;;;1.60;1.50;;;18.70;72.30;;;;;;5030874;28;20068;-50
2023/08/09 03:12:46;;;;;;;2.10;1.90;;;18.70;72.40;;;;;;5050095;28;20048;-50
2023/08/09 03:15:16;;;;;;;2.15;1.40;;;18.70;72.30;;;;;;5027304;28;20045;-51
2023/08/09 03:17:46;;;;;;;1.98;1.30;;;18.70;73.00;;;;;;5046655;28;20518;-48
2023/08/09 03:20:13;;;;;;;1.83;1.27;;;18.70;72.00;;;;;;5030134;28;20447;-50
2023/08/09 03:22:42;;;;;;;2.60;1.85;;;18.70;72.00;;;;;;5028028;28;20100;-50
2023/08/09 03:25:11;;;;;;;2.20;1.45;;;18.70;72.20;;;;;;5031183;28;20041;-49
2023/08/09 03:27:42;;;;;;;3.30;1.52;;;18.70;72.10;;;;;;5028714;28;20041;-51
2023/08/09 03:30:10;;;;;;;1.50;1.40;;;18.70;72.00;;;;;;5047469;28;20045;-49
2023/08/09 03:32:45;;;;;;;1.38;1.27;;;18.70;72.00;;;;;;5015892;28;20045;-51
2023/08/09 03:35:12;;;;;;;1.02;1.02;;;18.70;71.90;;;;;;5031009;28;20044;-48
2023/08/09 03:37:39;;;;;;;1.70;1.30;;;18.60;71.70;;;;;;5030763;28;20060;-50
2023/08/09 03:40:12;;;;;;;1.98;1.30;;;18.70;71.90;;;;;;5047851;28;20175;-51
2023/08/09 03:42:42;;;;;;;1.55;1.42;;;18.60;72.00;;;;;;5031417;28;20457;-50
2023/08/09 03:45:10;;;;;;;1.60;1.25;;;18.70;72.30;;;;;;5029824;28;20037;-47
2023/08/09 03:47:40;;;;;;;1.63;1.48;;;18.60;71.90;;;;;;5031254;28;20098;-51
2023/08/09 03:50:10;;;;;;;3.00;2.42;;;18.60;72.10;;;;;;5030246;28;20098;-46
2023/08/09 03:52:37;;;;;;;1.52;1.42;;;18.60;72.00;;;;;;5031727;28;20126;-49
2023/08/09 03:55:08;;;;;;;1.85;1.48;;;18.60;71.90;;;;;;5045286;28;20037;-52
2023/08/09 03:57:34;;;;;;;1.58;1.48;;;18.60;72.00;;;;;;5048669;28;20049;-50
2023/08/09 04:00:02;;;;;;;2.97;1.35;;;18.50;72.00;;;;;;5045136;28;20045;-46
2023/08/09 04:02:40;;;;;;;4.95;1.35;;;18.50;71.90;;;;;;5049936;28;20045;-50
2023/08/09 04:05:07;;;;;;;1.30;1.20;;;18.50;72.00;;;;;;5031197;28;20033;-48
2023/08/09 04:07:34;;;;;;;1.50;1.40;;;18.40;71.70;;;;;;5031232;28;20415;-51
2023/08/09 04:10:06;;;;;;;1.25;1.10;;;18.40;71.50;;;;;;5046987;28;20426;-46
2023/08/09 04:12:36;;;;;;;1.65;1.55;;;18.40;71.40;;;;;;5031949;28;20529;-51
2023/08/09 04:15:06;;;;;;;2.40;1.60;;;18.30;71.20;;;;;;5030964;28;20048;-51
2023/08/09 04:17:32;;;;;;;2.42;1.42;;;18.30;71.10;;;;;;5048527;28;20098;-48
2023/08/09 04:20:09;;;;;;;6.10;1.27;;;18.20;71.00;;;;;;5048183;28;20041;-50
2023/08/09 04:22:36;;;;;;;1.33;1.20;;;18.20;71.10;;;;;;5049551;28;20452;-50
2023/08/09 04:25:10;;;;;;;1.52;1.42;;;18.10;71.10;;;;;;5051189;28;20029;-48
2023/08/09 04:27:40;;;;;;;2.08;1.65;;;18.10;71.30;;;;;;5053424;28;20033;-50
2023/08/09 04:30:12;;;;;;;1.83;1.73;;;18.00;71.60;;;;;;5050627;28;20041;-51
2023/08/09 04:32:45;;;;;;;2.20;2.10;;;17.90;71.60;;;;;;5052360;28;20503;-48
2023/08/09 04:35:12;;;;;;;2.30;2.08;;;17.90;71.70;;;;;;5045550;28;20052;-49
2023/08/09 04:37:38;;;;;;;3.17;2.10;;;17.90;72.10;;;;;;5031357;28;20578;-48
2023/08/09 04:40:10;;;;;;;2.08;1.90;;;17.90;72.50;;;;;;5052675;28;20045;-51
2023/08/09 04:42:41;;;;;;;2.55;2.35;;;17.80;72.50;;;;;;5054096;28;20068;-52
2023/08/09 04:45:09;;;;;;;5.70;2.40;;;17.90;73.00;;;;;;5051054;28;20116;-52
2023/08/09 04:47:36;;;;;;;5.45;2.22;;;17.90;73.10;;;;;;5049399;28;20094;-50
2023/08/09 04:50:05;;;;;;;15.88;2.72;;;17.90;73.30;;;;;;5047138;28;20049;-50
2023/08/09 04:52:33;;;;;;;24.92;2.83;;;17.90;73.40;;;;;;5049756;28;20585;-51
2023/08/09 04:55:02;;;;;;;19.25;2.60;;;17.90;73.20;;;;;;5055269;28;20072;-47
2023/08/09 04:57:32;;;;;;;11.82;2.05;;;17.90;73.10;;;;;;5050860;28;20037;-50
2023/08/09 05:00:08;;;;;;;9.77;1.83;;;17.90;73.10;;;;;;5045558;28;20043;-51
2023/08/09 05:02:36;;;;;;;11.23;1.70;;;17.90;73.20;;;;;;5045560;28;20040;-51
2023/08/09 05:05:07;;;;;;;13.15;1.80;;;18.00;73.40;;;;;;5051013;28;20120;-51
2023/08/09 05:07:34;;;;;;;4.93;1.98;;;18.00;73.50;;;;;;5050293;28;20048;-51
2023/08/09 05:10:02;;;;;;;6.28;2.05;;;18.00;73.20;;;;;;5050692;28;20442;-52
2023/08/09 05:12:29;;;;;;;11.25;2.50;;;18.00;73.40;;;;;;5046360;28;20046;-50
2023/08/09 05:14:57;;;;;;;6.68;2.67;;;18.00;73.30;;;;;;5047966;28;20060;-51
2023/08/09 05:17:24;;;;;;;9.27;2.58;;;18.00;73.50;;;;;;5051388;28;20461;-51
2023/08/09 05:19:51;;;;;;;3.55;2.00;;;18.00;73.50;;;;;;5051864;28;20122;-48
2023/08/09 05:22:19;;;;;;;2.47;1.90;;;18.00;73.50;;;;;;5050399;28;20580;-51
2023/08/09 05:24:45;;;;;;;1.95;1.75;;;18.10;73.50;;;;;;5050225;28;20055;-51
2023/08/09 05:27:15;;;;;;;2.55;1.80;;;18.10;73.60;;;;;;5050578;28;20049;-51
2023/08/09 05:29:42;;;;;;;1.67;1.58;;;18.10;73.60;;;;;;5049655;28;20049;-51
2023/08/09 05:32:08;;;;;;;1.90;1.67;;;18.10;73.60;;;;;;5050389;28;20135;-51
2023/08/09 05:34:35;;;;;;;2.53;1.92;;;18.10;73.60;;;;;;5049899;28;20529;-52
2023/08/09 05:37:02;;;;;;;1.75;1.50;;;18.20;73.60;;;;;;5049670;28;20449;-51
2023/08/09 05:39:30;;;;;;;2.00;1.80;;;18.20;73.40;;;;;;5044880;28;20051;-51
2023/08/09 05:41:57;;;;;;;2.00;1.80;;;18.20;73.40;;;;;;5050435;28;20165;-51
2023/08/09 05:44:26;;;;;;;2.05;1.85;;;18.30;73.30;;;;;;5049802;28;20076;-51
2023/08/09 05:46:55;;;;;;;2.00;1.80;;;18.30;73.30;;;;;;5050054;28;20059;-52
2023/08/09 05:49:25;;;;;;;2.03;1.80;;;18.40;73.40;;;;;;5050211;28;20129;-51
2023/08/09 05:51:53;;;;;;;5.07;2.08;;;18.40;73.20;;;;;;5049119;28;20127;-50
2023/08/09 05:54:19;;;;;;;1.70;1.60;;;18.40;73.50;;;;;;5043640;28;20048;-52
2023/08/09 05:56:46;;;;;;;1.67;1.58;;;18.50;73.50;;;;;;5042949;28;20060;-52
2023/08/09 05:59:13;;;;;;;2.45;2.25;;;18.60;73.60;;;;;;5028542;28;20141;-50
2023/08/09 06:01:40;;;;;;;3.25;2.03;;;18.60;73.70;;;;;;5047119;28;20555;-51
2023/08/09 06:04:07;;;;;;;2.10;1.55;;;18.60;73.80;;;;;;5049906;28;20119;-47
2023/08/09 06:06:35;;;;;;;1.88;1.77;;;18.70;73.90;;;;;;5029958;28;20076;-52
2023/08/09 06:09:05;;;;;;;2.13;1.35;;;18.80;73.80;;;;;;5049133;28;20064;-51
2023/08/09 06:11:32;;;;;;;3.65;1.70;;;18.90;73.50;;;;;;5050103;28;20064;-51
2023/08/09 06:13:59;;;;;;;2.53;1.50;;;19.00;73.50;;;;;;5051076;28;20076;-51
2023/08/09 06:16:26;;;;;;;3.05;1.48;;;19.00;73.40;;;;;;5047289;28;20450;-49
2023/08/09 06:18:53;;;;;;;2.95;1.77;;;19.10;73.20;;;;;;5042075;28;20130;-52
2023/08/09 06:21:20;;;;;;;3.10;1.98;;;19.10;72.80;;;;;;5046838;28;20041;-50
2023/08/09 06:23:47;;;;;;;2.53;2.33;;;19.20;72.40;;;;;;5050160;28;20040;-51
2023/08/09 06:26:14;;;;;;;2.53;1.90;;;19.20;72.00;;;;;;5044683;28;20037;-50
2023/08/09 06:28:40;;;;;;;1.77;1.67;;;19.20;72.10;;;;;;5048295;28;20037;-51
2023/08/09 06:31:08;;;;;;;2.72;1.67;;;19.20;72.00;;;;;;5050302;28;20048;-49
2023/08/09 06:33:41;;;;;;;1.80;1.70;;;19.30;72.20;;;;;;5051290;28;20048;-51
2023/08/09 06:36:08;;;;;;;;;;;19.30;72.20;;;;;;5050482;28;20122;-48
2023/08/09 06:38:35;;;;;;;1.60;1.50;;;19.40;72.20;;;;;;5049016;28;19920;-48
2023/08/09 06:41:01;;;;;;;1.80;1.58;;;19.40;72.20;;;;;;5049271;28;20055;-47
2023/08/09 06:43:30;;;;;;;1.70;1.60;;;19.50;71.80;;;;;;5050872;28;20493;-49
2023/08/09 06:45:58;;;;;;;2.17;1.88;;;19.50;71.80;;;;;;5048745;28;20033;-51
2023/08/09 06:48:25;;;;;;;2.70;1.90;;;19.60;71.80;;;;;;5047796;28;20232;-51
2023/08/09 06:50:52;;;;;;;2.50;1.48;;;19.60;72.00;;;;;;5046879;28;20047;-51
2023/08/09 06:53:19;;;;;;;1.92;1.83;;;19.70;72.20;;;;;;5050167;28;20095;-51
2023/08/09 06:55:46;;;;;;;2.83;2.22;;;19.80;71.70;;;;;;5048458;28;20041;-50
2023/08/09 06:58:12;;;;;;;2.30;1.60;;;19.90;71.50;;;;;;5049507;28;20041;-50
2023/08/09 07:00:39;;;;;;;2.55;1.70;;;19.90;70.90;;;;;;5045094;28;20111;-50
2023/08/09 07:03:06;;;;;;;2.08;1.98;;;20.00;70.70;;;;;;5050964;28;20041;-51
2023/08/09 07:05:33;;;;;;;2.22;2.00;;;20.00;70.50;;;;;;5042424;28;20112;-52
2023/08/09 07:08:00;;;;;;;3.67;2.13;;;20.00;69.40;;;;;;5045716;28;20596;-52
2023/08/09 07:10:28;;;;;;;2.67;2.03;;;20.10;69.20;;;;;;5049018;28;20824;-48
2023/08/09 07:12:54;;;;;;;2.33;1.92;;;20.00;68.70;;;;;;5047642;28;20120;-50
2023/08/09 07:15:21;;;;;;;3.03;2.25;;;20.00;68.70;;;;;;5042210;28;20060;-50
2023/08/09 07:17:48;;;;;;;2.15;2.00;;;20.00;68.60;;;;;;5049171;28;20083;-52
2023/08/09 07:20:15;;;;;;;2.92;2.10;;;19.90;68.40;;;;;;5045932;28;20124;-51
2023/08/09 07:22:43;;;;;;;3.05;2.75;;;19.90;68.40;;;;;;5046888;28;20471;-51
2023/08/09 07:25:13;;;;;;;2.95;2.45;;;19.90;68.50;;;;;;5042957;28;20072;-51
2023/08/09 07:27:44;;;;;;;2.83;2.58;;;19.90;68.60;;;;;;5045511;28;20041;-49
2023/08/09 07:30:13;;;;;;;4.43;2.60;;;19.80;68.80;;;;;;5042630;28;20515;-48
2023/08/09 07:32:40;;;;;;;2.83;2.30;;;19.80;69.00;;;;;;5050051;28;20136;-48
2023/08/09 07:35:08;;;;;;;3.35;2.42;;;19.80;69.10;;;;;;5047879;28;20559;-51
2023/08/09 07:37:38;;;;;;;2.15;1.95;;;19.90;69.50;;;;;;5040870;28;20442;-50
2023/08/09 07:40:06;;;;;;;2.28;1.98;;;19.90;69.50;;;;;;5041755;28;20041;-51
2023/08/09 07:42:35;;;;;;;2.90;1.63;;;20.00;69.10;;;;;;5043492;28;20449;-47
2023/08/09 07:45:03;;;;;;;3.95;2.58;;;20.10;69.00;;;;;;5045214;28;20036;-50
2023/08/09 07:47:33;;;;;;;2.95;2.55;;;20.20;68.90;;;;;;5021970;28;20120;-51
2023/08/09 07:50:00;;;;;;;3.30;3.00;;;20.20;68.80;;;;;;5046466;28;20434;-50
2023/08/09 07:52:27;;;;;;;3.50;1.90;;;20.30;68.60;;;;;;5045208;28;20037;-51
2023/08/09 07:54:53;;;;;;;3.00;2.75;;;20.30;69.10;;;;;;5027514;28;20449;-52
2023/08/09 07:57:20;;;;;;;2.40;2.20;;;20.40;69.20;;;;;;5039463;28;20128;-52
2023/08/09 07:59:47;;;;;;;4.32;2.58;;;20.40;68.90;;;;;;5041842;28;20068;-50
2023/08/09 08:02:14;;;;;;;2.47;2.13;;;20.50;68.80;;;;;;5043973;28;20056;-52
2023/08/09 08:04:41;;;;;;;3.30;1.90;;;20.50;68.50;;;;;;5047042;28;20116;-47
2023/08/09 08:07:09;;;;;;;4.85;2.15;;;20.60;68.60;;;;;;5048387;28;20037;-51
2023/08/09 08:09:40;;;;;;;3.53;2.17;;;20.70;68.40;;;;;;5045183;28;20037;-47
2023/08/09 08:12:08;;;;;;;1.63;1.52;;;20.80;68.00;;;;;;5047050;28;20069;-52
2023/08/09 08:14:48;;;;;;;2.75;1.98;;;20.80;67.70;;;;;;5049237;28;20045;-52
2023/08/09 08:17:15;;;;;;;6.78;2.35;;;20.90;67.80;;;;;;5039177;28;20045;-52
2023/08/09 08:19:44;;;;;;;1.98;1.83;;;20.90;67.70;;;;;;5041095;28;20064;-51
2023/08/09 08:22:11;;;;;;;2.35;2.15;;;21.00;67.40;;;;;;5044376;28;20099;-52
2023/08/09 08:24:39;;;;;;;2.45;1.92;;;21.00;66.90;;;;;;5049697;28;20060;-48
2023/08/09 08:27:06;;;;;;;1.65;1.55;;;21.10;66.80;;;;;;5048549;28;20045;-51
2023/08/09 08:29:32;;;;;;;2.10;1.67;;;21.10;66.80;;;;;;5046797;28;20116;-48
2023/08/09 08:31:59;;;;;;;2.00;1.40;;;21.20;67.10;;;;;;5028592;28;20052;-51
2023/08/09 08:34:31;;;;;;;2.35;1.50;;;21.30;66.70;;;;;;5048798;28;20041;-51
2023/08/09 08:36:58;;;;;;;2.08;1.88;;;21.40;65.60;;;;;;5048300;28;20561;-52
2023/08/09 08:39:29;;;;;;;1.73;1.58;;;21.50;65.40;;;;;;5047116;28;20083;-49
2023/08/09 08:41:56;;;;;;;1.80;1.63;;;21.50;64.90;;;;;;5030434;28;20041;-50
2023/08/09 08:44:25;;;;;;;2.45;1.65;;;21.50;64.80;;;;;;5048553;28;20577;-48
2023/08/09 08:46:52;;;;;;;2.08;1.70;;;21.50;64.60;;;;;;5030653;28;20052;-49
2023/08/09 08:49:24;;;;;;;1.85;1.73;;;21.60;65.20;;;;;;5047418;28;20041;-47
2023/08/09 08:51:55;;;;;;;2.38;2.00;;;21.60;64.70;;;;;;5046384;28;20044;-52
2023/08/09 08:54:24;;;;;;;3.25;2.42;;;21.60;63.60;;;;;;5045295;28;20052;-49
2023/08/09 08:56:51;;;;;;;2.83;2.03;;;21.60;63.20;;;;;;5044279;28;20068;-51
2023/08/09 08:59:18;;;;;;;2.40;2.15;;;21.60;63.60;;;;;;5044184;28;20049;-48
2023/08/09 09:01:46;;;;;;;2.97;2.50;;;21.60;64.00;;;;;;5045816;28;20037;-52
2023/08/09 09:04:13;;;;;;;3.03;2.08;;;21.60;63.20;;;;;;5048885;28;20048;-51
2023/08/09 09:06:41;;;;;;;4.00;2.28;;;21.50;63.30;;;;;;5047560;28;20499;-50
2023/08/09 09:09:13;;;;;;;3.03;2.10;;;21.60;63.30;;;;;;5040919;28;20040;-51
2023/08/09 09:11:42;;;;;;;2.38;1.88;;;21.60;62.90;;;;;;5047151;28;20050;-50
2023/08/09 09:14:16;;;;;;;2.10;2.00;;;21.60;62.90;;;;;;5046719;28;20513;-51
2023/08/09 09:16:43;;;;;;;1.90;1.70;;;21.60;62.60;;;;;;5045481;28;20095;-52
2023/08/09 09:19:11;;;;;;;1.73;1.63;;;21.60;62.30;;;;;;5044116;28;20045;-50
2023/08/09 09:21:41;;;;;;;3.38;2.10;;;21.60;61.70;;;;;;5048747;28;20037;-51
2023/08/09 09:24:10;;;;;;;6.47;2.35;;;21.60;61.30;;;;;;5047587;28;20029;-50
2023/08/09 09:26:37;;;;;;;1.80;1.70;;;21.60;61.60;;;;;;5051868;28;20036;-51
2023/08/09 09:29:08;;;;;;;3.30;2.08;;;21.60;61.00;;;;;;5051252;28;20039;-52
2023/08/09 09:31:39;;;;;;;2.95;2.20;;;21.60;62.00;;;;;;5048811;28;20044;-52
2023/08/09 09:34:09;;;;;;;2.10;1.90;;;21.60;61.80;;;;;;5051305;28;20041;-51
2023/08/09 09:36:40;;;;;;;2.72;1.80;;;21.60;62.40;;;;;;5048197;28;20060;-52
2023/08/09 09:39:10;;;;;;;2.00;1.90;;;21.70;62.60;;;;;;5051093;28;20115;-50
2023/08/09 09:41:38;;;;;;;4.45;2.75;;;21.70;62.00;;;;;;5051653;28;20041;-51
2023/08/09 09:44:05;;;;;;;2.28;2.08;;;21.70;63.10;;;;;;5052042;28;20557;-51
2023/08/09 09:46:39;;;;;;;3.10;1.77;;;21.80;63.00;;;;;;5050001;28;20116;-52
2023/08/09 09:49:06;;;;;;;4.47;2.20;;;21.80;63.20;;;;;;5047358;28;20116;-51
2023/08/09 09:51:34;;;;;;;2.28;1.90;;;22.00;62.90;;;;;;5046281;28;20661;-51
2023/08/09 09:54:01;;;;;;;4.53;1.95;;;22.10;62.30;;;;;;5048411;28;20518;-52
2023/08/09 09:56:28;;;;;;;2.47;2.28;;;22.20;61.60;;;;;;5044521;28;20037;-52
2023/08/09 09:58:55;;;;;;;2.33;2.00;;;22.30;61.10;;;;;;5043085;28;20121;-51
2023/08/09 10:01:24;;;;;;;3.78;2.33;;;22.50;61.20;;;;;;5032650;28;20582;-52
2023/08/09 10:04:07;;;;;;;3.72;2.03;;;22.60;59.70;;;;;;5051001;28;20033;-60
2023/08/09 10:06:37;;;;;;;3.63;2.75;;;22.70;59.20;;;;;;5050026;28;20045;-59
2023/08/09 10:09:05;;;;;;;3.40;2.78;;;22.90;58.80;;;;;;5044454;28;20037;-60
2023/08/09 10:11:33;;;;;;;4.13;3.40;;;22.90;57.90;;;;;;5046454;28;20047;-60
2023/08/09 10:14:02;;;;;;;3.67;3.38;;;23.00;57.40;;;;;;5047820;28;20483;-60
2023/08/09 10:16:31;;;;;;;4.00;3.17;;;23.10;57.70;;;;;;5047072;28;20052;-59
2023/08/09 10:19:20;;;;;;;3.78;3.10;;;23.10;57.60;;;;;;5048207;28;20040;-60
2023/08/09 10:21:48;;;;;;;3.53;3.05;;;23.10;56.30;;;;;;5045241;28;20491;-59
2023/08/09 10:24:18;;;;;;;3.03;2.83;;;23.00;57.70;;;;;;5040965;28;20114;-60
2023/08/09 10:26:49;;;;;;;3.70;3.40;;;23.00;58.10;;;;;;5045267;28;20033;-60
2023/08/09 10:29:21;;;;;;;3.70;3.40;;;23.00;58.20;;;;;;5041420;28;20049;-59
2023/08/09 10:31:59;;;;;;;3.50;3.20;;;23.10;56.70;;;;;;5045218;28;20037;-59
2023/08/09 10:34:35;;;;;;;6.38;4.47;;;23.10;56.40;;;;;;5043310;28;20057;-59
2023/08/09 10:37:06;;;;;;;4.55;4.15;;;23.10;55.50;;;;;;5048609;28;20071;-59
2023/08/09 10:39:34;;;;;;;4.72;4.43;;;23.20;55.70;;;;;;5044674;28;20076;-59
2023/08/09 10:42:13;;;;;;;4.10;3.80;;;23.20;55.70;;;;;;5042087;28;20722;-60
2023/08/09 10:44:44;;;;;;;4.18;3.88;;;23.30;54.50;;;;;;5041832;28;20041;-59
2023/08/09 10:47:14;;;;;;;3.78;3.47;;;23.40;54.90;;;;;;5043873;28;20049;-60
2023/08/09 10:49:53;;;;;;;3.85;3.33;;;23.40;55.00;;;;;;5044287;28;20064;-59
2023/08/09 10:52:28;;;;;;;4.22;3.92;;;23.50;54.60;;;;;;5047569;28;20136;-59
2023/08/09 10:55:20;;;;;;;3.60;3.08;;;23.50;55.70;;;;;;5046322;28;20037;-59
2023/08/09 10:57:49;;;;;;;3.33;3.03;;;23.60;54.70;;;;;;5046506;28;20077;-59
2023/08/09 11:00:16;;;;;;;4.47;2.60;;;23.60;55.00;;;;;;5042423;28;20140;-59
2023/08/09 11:02:51;;;;;;;3.50;2.35;;;23.70;54.80;;;;;;5049070;28;20404;-59
2023/08/09 11:05:18;;;;;;;2.28;2.17;;;23.80;54.00;;;;;;5048884;28;20033;-60
2023/08/09 11:07:47;;;;;;;2.22;2.03;;;23.90;54.30;;;;;;5046561;28;20041;-59
2023/08/09 11:10:13;;;;;;;2.25;2.05;;;24.00;53.30;;;;;;5028234;28;20136;-59
2023/08/09 11:12:44;;;;;;;2.90;2.70;;;24.00;53.50;;;;;;5046850;28;20063;-60
2023/08/09 11:15:11;;;;;;;2.65;2.38;;;24.10;52.60;;;;;;5049013;28;20045;-60
2023/08/09 11:17:48;;;;;;;2.30;2.15;;;24.20;52.70;;;;;;5047019;28;20047;-60
2023/08/09 11:20:16;;;;;;;2.78;2.50;;;24.30;52.10;;;;;;5045239;28;20052;-60
2023/08/09 11:22:56;;;;;;;2.25;2.00;;;24.30;52.60;;;;;;5046928;28;20080;-59
2023/08/09 11:25:26;;;;;;;2.22;2.13;;;24.40;52.60;;;;;;5042697;28;20049;-58
2023/08/09 11:27:54;;;;;;;1.83;1.60;;;24.50;53.10;;;;;;5042247;28;20037;-59
2023/08/09 11:30:21;;;;;;;2.05;1.45;;;24.50;52.70;;;;;;5043907;28;20388;-59
2023/08/09 11:33:04;;;;;;;1.75;1.60;;;24.60;52.60;;;;;;5044341;28;20108;-59
2023/08/09 11:35:44;;;;;;;2.85;1.30;;;24.70;51.70;;;;;;5042085;28;20124;-60
2023/08/09 11:38:15;;;;;;;1.80;1.55;;;24.70;51.90;;;;;;5043411;28;20072;-59
2023/08/09 11:40:51;;;;;;;2.50;1.60;;;24.70;51.70;;;;;;5041699;28;20104;-60
2023/08/09 11:43:20;;;;;;;1.77;1.63;;;24.80;51.50;;;;;;5044630;28;20037;-60
2023/08/09 11:45:55;;;;;;;1.60;1.50;;;24.80;52.40;;;;;;5045148;28;20056;-59
2023/08/09 11:48:31;;;;;;;2.47;1.33;;;24.80;50.80;;;;;;5026344;28;20682;-60
2023/08/09 11:51:19;;;;;;;1.60;1.40;;;24.90;51.50;;;;;;5045658;28;20037;-62
2023/08/09 11:53:49;;;;;;;2.60;1.73;;;25.00;50.80;;;;;;5047134;28;20052;-61
2023/08/09 11:56:23;;;;;;;1.67;1.58;;;25.10;51.70;;;;;;5045801;28;20045;-62
2023/08/09 11:58:52;;;;;;;1.85;1.67;;;25.10;50.10;;;;;;5044669;28;20460;-61
2023/08/09 12:01:37;;;;;;;3.55;1.88;;;25.20;50.10;;;;;;5029542;28;20114;-61
2023/08/09 12:04:10;;;;;;;1.73;1.63;;;25.20;49.60;;;;;;5045803;28;20114;-62
2023/08/09 12:06:56;;;;;;;2.08;1.98;;;25.30;49.90;;;;;;5021689;28;20560;-62
2023/08/09 12:09:42;;;;;;;2.42;1.70;;;25.30;50.30;;;;;;5041414;28;20071;-62
2023/08/09 12:12:33;;;;;;;1.58;1.42;;;25.40;50.10;;;;;;5048703;28;20427;-63
2023/08/09 12:15:00;;;;;;;3.05;1.67;;;25.40;51.20;;;;;;5046751;28;20112;-62
2023/08/09 12:17:28;;;;;;;2.63;1.45;;;25.40;50.00;;;;;;5047855;28;20057;-63
2023/08/09 12:20:04;;;;;;;1.75;1.45;;;25.40;49.80;;;;;;5042961;28;20044;-63
2023/08/09 12:22:31;;;;;;;1.67;1.42;;;25.50;49.00;;;;;;5048720;28;20037;-62
2023/08/09 12:25:00;;;;;;;1.65;1.55;;;25.50;49.30;;;;;;5047967;28;20029;-62
2023/08/09 12:27:29;;;;;;;1.90;1.80;;;25.50;49.70;;;;;;5045703;28;20469;-62
2023/08/09 12:29:56;;;;;;;2.67;1.77;;;25.60;49.10;;;;;;5041370;28;20042;-62
2023/08/09 12:32:24;;;;;;;1.65;1.55;;;25.60;48.60;;;;;;5046273;28;20128;-62
2023/08/09 12:34:55;;;;;;;1.40;1.30;;;25.60;48.60;;;;;;5042130;28;20045;-63
2023/08/09 12:37:22;;;;;;;3.78;1.35;;;25.60;48.60;;;;;;5028708;28;20458;-63
2023/08/09 12:39:48;;;;;;;1.45;1.20;;;25.60;48.60;;;;;;5025706;28;20565;-63
2023/08/09 12:42:15;;;;;;;1.98;1.33;;;25.60;48.60;;;;;;5038785;28;20045;-62
2023/08/09 12:44:42;;;;;;;1.30;1.20;;;25.60;48.60;;;;;;5045964;28;20435;-63
2023/08/09 12:47:09;;;;;;;1.58;1.48;;;25.60;48.00;;;;;;5041601;28;20041;-64
2023/08/09 12:49:40;;;;;;;1.40;1.20;;;25.70;47.60;;;;;;5041664;28;20041;-62
2023/08/09 12:52:07;;;;;;;1.63;1.35;;;25.70;48.10;;;;;;5049264;28;20086;-62
2023/08/09 12:54:34;;;;;;;1.50;1.40;;;25.90;47.50;;;;;;5052316;28;20041;-62
2023/08/09 12:57:00;;;;;;;1.23;1.13;;;25.90;47.90;;;;;;5049725;28;20115;-63
2023/08/09 12:59:27;;;;;;;1.65;1.33;;;26.00;47.10;;;;;;5047560;28;20112;-63